Terminal Aerodrome Forecast
Issued by NWS

Home | Current Version | Previous Version | Graphics & Text | Print | Product List | Glossary On
Versions: 1 2 3 4 5 6 7 8 9 10 11 12
000
FTUS43 KGRB 222300
TAFAUW
TAF
KAUW 222320Z 2300/2324 30008G15KT P6SM BKN040 BKN060
      TEMPO 2300/2303 6SM -SN
     FM230900 31007KT P6SM SCT060
     FM231500 30011KT P6SM SCT060
     FM232200 29007KT P6SM SKC=

USA.gov is the U.S. government's official web portal to all federal, state and local government web resources and services.